createdAt,value
2019-02-24T00:00:16.306Z,3.70
2019-02-24T00:03:12.896Z,3.70
2019-02-24T00:06:08.394Z,3.80
2019-02-24T00:09:05.858Z,3.13
2019-02-24T00:12:01.386Z,3.12
2019-02-24T00:14:58.146Z,2.97
2019-02-24T00:17:55.608Z,3.37
2019-02-24T00:20:52.120Z,3.77
2019-02-24T00:23:48.689Z,3.33
2019-02-24T00:26:45.192Z,3.37
2019-02-24T00:29:40.706Z,4.03
2019-02-24T00:32:37.221Z,3.83
2019-02-24T00:35:32.479Z,3.90
2019-02-24T00:38:30.763Z,2.90
2019-02-24T00:41:26.501Z,3.70
2019-02-24T00:44:23.028Z,3.60
2019-02-24T00:47:18.738Z,4.07
2019-02-24T00:50:15.448Z,4.40
2019-02-24T00:53:10.961Z,4.10
2019-02-24T00:56:07.451Z,3.70
2019-02-24T00:59:03.633Z,3.47
2019-02-24T01:02:00.013Z,3.40
2019-02-24T01:04:55.390Z,4.13
2019-02-24T01:07:52.197Z,3.40
2019-02-24T01:10:47.633Z,3.77
2019-02-24T01:13:44.405Z,3.77
2019-02-24T01:16:39.960Z,3.90
2019-02-24T01:19:37.761Z,3.17
2019-02-24T01:22:32.779Z,3.30
2019-02-24T01:25:29.825Z,3.43
2019-02-24T01:28:27.301Z,3.50
2019-02-24T01:31:24.045Z,3.83
2019-02-24T01:34:19.719Z,3.20
2019-02-24T01:37:16.234Z,2.80
2019-02-24T01:40:12.952Z,3.57
2019-02-24T01:43:09.407Z,3.30
2019-02-24T01:46:05.110Z,2.97
2019-02-24T01:49:03.156Z,3.15
2019-02-24T01:51:57.949Z,3.70
2019-02-24T01:54:54.461Z,2.90
2019-02-24T01:57:49.927Z,3.27
2019-02-24T02:00:46.435Z,3.93
2019-02-24T02:03:43.080Z,3.80
2019-02-24T02:06:38.809Z,3.30
2019-02-24T02:09:35.348Z,3.57
2019-02-24T02:12:31.170Z,3.50
2019-02-24T02:15:27.648Z,4.13
2019-02-24T02:18:23.102Z,3.60
2019-02-24T02:21:20.807Z,3.90
2019-02-24T02:24:16.211Z,3.40
2019-02-24T02:27:13.754Z,3.40
2019-02-24T02:30:10.241Z,2.93
2019-02-24T02:33:06.838Z,4.03
2019-02-24T02:36:02.311Z,3.23
2019-02-24T02:38:58.779Z,3.33
2019-02-24T02:41:54.272Z,3.30
2019-02-24T02:44:50.854Z,4.10
2019-02-24T02:47:46.362Z,3.77
2019-02-24T02:50:43.953Z,3.63
2019-02-24T02:53:39.398Z,3.53
2019-02-24T02:56:36.165Z,3.57
2019-02-24T02:59:31.477Z,3.40
2019-02-24T03:02:27.882Z,3.77
2019-02-24T03:05:23.590Z,3.90
2019-02-24T03:08:22.532Z,3.67
2019-02-24T03:11:17.944Z,3.17
2019-02-24T03:14:15.477Z,3.57
2019-02-24T03:17:10.816Z,3.80
2019-02-24T03:20:08.748Z,3.63
2019-02-24T03:23:03.559Z,4.13
2019-02-24T03:25:59.632Z,3.83
2019-02-24T03:29:03.845Z,3.60
2019-02-24T03:31:52.637Z,3.30
2019-02-24T03:34:48.321Z,3.60
2019-02-24T03:37:44.820Z,4.00
2019-02-24T03:40:40.901Z,3.70
2019-02-24T03:43:36.829Z,3.90
2019-02-24T03:46:31.774Z,3.53
2019-02-24T03:49:28.316Z,3.53
2019-02-24T03:52:24.031Z,4.13
2019-02-24T03:55:20.464Z,3.47
2019-02-24T03:58:15.944Z,3.90
2019-02-24T04:01:13.476Z,4.17
2019-02-24T04:04:08.764Z,3.60
2019-02-24T04:07:04.898Z,3.37
2019-02-24T04:10:00.005Z,4.17
2019-02-24T04:12:56.815Z,4.50
2019-02-24T04:15:52.541Z,3.47
2019-02-24T04:18:49.064Z,3.70
2019-02-24T04:21:46.364Z,4.00
2019-02-24T04:24:43.208Z,3.90
2019-02-24T04:27:38.987Z,4.03
2019-02-24T04:30:37.533Z,3.87
2019-02-24T04:33:32.249Z,4.10
2019-02-24T04:36:28.653Z,3.67
2019-02-24T04:39:24.157Z,3.80
2019-02-24T04:42:21.664Z,3.80
2019-02-24T04:45:17.173Z,4.00
2019-02-24T04:48:13.878Z,3.50
2019-02-24T04:51:10.428Z,3.90
2019-02-24T04:54:07.000Z,4.30
2019-02-24T04:57:02.369Z,3.80
2019-02-24T04:59:58.918Z,3.90
2019-02-24T05:02:55.535Z,4.60
2019-02-24T05:05:52.211Z,3.87
2019-02-24T05:08:48.771Z,3.93
2019-02-24T05:11:44.375Z,3.70
2019-02-24T05:14:41.750Z,4.53
2019-02-24T05:17:38.703Z,3.60
2019-02-24T05:20:34.701Z,3.50
2019-02-24T05:23:30.625Z,3.83
2019-02-24T05:26:27.149Z,3.50
2019-02-24T05:29:23.943Z,4.47
2019-02-24T05:32:22.557Z,3.60
2019-02-24T05:35:19.265Z,4.47
2019-02-24T05:38:15.553Z,4.13
2019-02-24T05:41:10.706Z,3.80
2019-02-24T05:44:07.211Z,3.70
2019-02-24T05:47:02.748Z,4.05
2019-02-24T05:49:59.330Z,4.20
2019-02-24T05:52:56.044Z,4.45
2019-02-24T05:55:52.519Z,4.40
2019-02-24T05:58:48.179Z,3.85
2019-02-24T06:01:44.642Z,4.20
2019-02-24T06:04:40.341Z,4.10
2019-02-24T06:07:36.008Z,4.27
2019-02-24T06:10:31.011Z,3.60
2019-02-24T06:13:27.667Z,4.03
2019-02-24T06:16:23.430Z,3.27
2019-02-24T06:19:20.166Z,3.87
2019-02-24T06:22:17.679Z,4.10
2019-02-24T06:25:14.436Z,4.47
2019-02-24T06:28:09.953Z,3.97
2019-02-24T06:31:06.241Z,4.63
2019-02-24T06:34:02.224Z,4.17
2019-02-24T06:36:58.725Z,4.37
2019-02-24T06:39:54.185Z,4.00
2019-02-24T06:42:50.687Z,3.97
2019-02-24T06:45:46.156Z,4.73
2019-02-24T06:48:42.574Z,5.13
2019-02-24T06:51:38.264Z,4.00
2019-02-24T06:54:34.418Z,3.80
2019-02-24T06:57:32.037Z,4.00
2019-02-24T07:00:27.458Z,4.23
2019-02-24T07:03:24.964Z,4.30
2019-02-24T07:06:20.680Z,3.93
2019-02-24T07:09:16.951Z,4.07
2019-02-24T07:12:12.453Z,4.25
2019-02-24T07:15:08.829Z,4.60
2019-02-24T07:18:04.349Z,3.97
2019-02-24T07:21:00.892Z,4.43
2019-02-24T07:23:59.832Z,4.50
2019-02-24T07:27:01.347Z,3.87
2019-02-24T07:29:58.131Z,4.00
2019-02-24T07:32:54.810Z,3.17
2019-02-24T07:35:52.606Z,3.90
2019-02-24T07:38:48.178Z,3.92
2019-02-24T07:41:44.839Z,4.35
2019-02-24T07:44:40.770Z,3.77
2019-02-24T07:47:38.337Z,3.93
2019-02-24T07:50:33.896Z,4.10
2019-02-24T07:53:31.613Z,3.83
2019-02-24T07:56:27.131Z,4.00
2019-02-24T07:59:23.873Z,3.85
2019-02-24T08:02:19.363Z,4.00
2019-02-24T08:05:16.008Z,4.30
2019-02-24T08:08:16.438Z,4.20
2019-02-24T08:11:07.648Z,3.90
2019-02-24T08:14:04.093Z,4.00
2019-02-24T08:17:00.882Z,4.47
2019-02-24T08:19:56.325Z,5.67
2019-02-24T08:22:52.796Z,4.00
2019-02-24T08:25:50.560Z,4.40
2019-02-24T08:28:46.221Z,5.50
2019-02-24T08:31:42.293Z,4.93
2019-02-24T08:34:41.519Z,4.87
2019-02-24T08:37:38.152Z,5.93
2019-02-24T08:40:36.678Z,4.80
2019-02-24T08:43:32.502Z,5.77
2019-02-24T08:46:28.387Z,4.40
2019-02-24T08:49:24.211Z,3.90
2019-02-24T08:52:20.902Z,3.80
2019-02-24T08:55:17.588Z,3.50
2019-02-24T08:58:13.613Z,3.90
2019-02-24T09:01:09.181Z,3.27
2019-02-24T09:04:05.927Z,4.43
2019-02-24T09:07:01.437Z,3.63
2019-02-24T09:09:58.338Z,3.87
2019-02-24T09:12:54.981Z,4.10
2019-02-24T09:15:53.293Z,3.53
2019-02-24T09:18:48.282Z,4.00
2019-02-24T09:21:43.931Z,4.20
2019-02-24T09:24:41.430Z,3.50
2019-02-24T09:27:37.157Z,3.83
2019-02-24T09:30:34.830Z,4.20
2019-02-24T09:33:30.602Z,5.03
2019-02-24T09:36:28.421Z,4.50
2019-02-24T09:39:24.938Z,4.70
2019-02-24T09:42:18.428Z,4.23
2019-02-24T09:45:14.106Z,3.90
2019-02-24T09:48:10.645Z,3.90
2019-02-24T09:51:06.250Z,4.05
2019-02-24T09:54:02.968Z,4.50
2019-02-24T09:57:00.715Z,3.87
2019-02-24T09:59:56.243Z,3.50
2019-02-24T10:02:52.796Z,3.58
2019-02-24T10:05:49.571Z,4.20
2019-02-24T10:08:46.540Z,5.15
2019-02-24T10:11:42.954Z,3.80
2019-02-24T10:14:39.519Z,4.10
2019-02-24T10:17:35.327Z,3.73
2019-02-24T10:20:31.831Z,3.73
2019-02-24T10:23:27.324Z,3.60
2019-02-24T10:26:25.764Z,3.80
2019-02-24T10:29:21.098Z,3.80
2019-02-24T10:32:17.834Z,3.92
2019-02-24T10:35:12.806Z,3.90
2019-02-24T10:38:09.329Z,4.70
2019-02-24T10:41:07.165Z,4.30
2019-02-24T10:44:02.983Z,3.40
2019-02-24T10:46:59.757Z,3.93
2019-02-24T10:49:56.201Z,3.73
2019-02-24T10:52:52.991Z,4.05
2019-02-24T10:55:48.724Z,3.50
2019-02-24T10:58:44.901Z,3.33
2019-02-24T11:01:41.646Z,3.57
2019-02-24T11:04:37.216Z,4.00
2019-02-24T11:07:35.000Z,3.37
2019-02-24T11:10:30.757Z,3.30
2019-02-24T11:13:27.465Z,3.20
2019-02-24T11:16:23.101Z,3.50
2019-02-24T11:19:18.187Z,3.70
2019-02-24T11:22:14.122Z,3.37
2019-02-24T11:25:09.654Z,2.77
2019-02-24T11:28:09.729Z,3.33
2019-02-24T11:31:05.278Z,2.70
2019-02-24T11:34:01.860Z,3.20
2019-02-24T11:36:58.472Z,2.80
2019-02-24T11:39:55.221Z,4.20
2019-02-24T11:42:52.971Z,12.13
2019-02-24T11:45:48.734Z,3.30
2019-02-24T11:48:44.496Z,3.27
2019-02-24T11:51:40.096Z,3.20
2019-02-24T11:54:36.617Z,3.00
2019-02-24T11:57:33.231Z,3.40
2019-02-24T12:00:29.781Z,3.07
2019-02-24T12:03:26.574Z,2.80
2019-02-24T12:06:22.254Z,3.10
2019-02-24T12:09:17.890Z,3.33
2019-02-24T12:12:13.382Z,4.60
2019-02-24T12:15:10.053Z,5.70
2019-02-24T12:18:06.562Z,4.63
2019-02-24T12:21:03.150Z,4.30
2019-02-24T12:23:58.730Z,4.40
2019-02-24T12:26:55.457Z,3.90
2019-02-24T12:29:52.301Z,4.25
2019-02-24T12:32:47.975Z,3.90
2019-02-24T12:35:44.619Z,3.67
2019-02-24T12:38:41.423Z,3.50
2019-02-24T12:41:37.992Z,3.33
2019-02-24T12:44:34.585Z,4.13
2019-02-24T12:47:33.415Z,4.10
2019-02-24T12:50:28.881Z,3.37
2019-02-24T12:53:24.668Z,3.03
2019-02-24T12:56:21.326Z,2.67
2019-02-24T12:59:18.043Z,2.90
2019-02-24T13:02:14.132Z,3.30
2019-02-24T13:05:09.785Z,3.00
2019-02-24T13:08:07.321Z,3.45
2019-02-24T13:11:02.823Z,3.03
2019-02-24T13:13:59.528Z,3.30
2019-02-24T13:16:56.316Z,2.63
2019-02-24T13:19:52.027Z,2.90
2019-02-24T13:22:49.376Z,3.27
2019-02-24T13:25:44.289Z,2.50
2019-02-24T13:28:50.182Z,2.10
2019-02-24T13:31:38.720Z,2.10
2019-02-24T13:34:35.464Z,2.72
2019-02-24T13:37:31.290Z,2.70
2019-02-24T13:40:27.651Z,2.43
2019-02-24T13:43:23.154Z,3.20
2019-02-24T13:46:19.446Z,2.40
2019-02-24T13:49:17.675Z,2.57
2019-02-24T13:52:12.394Z,2.47
2019-02-24T13:55:08.993Z,2.57
2019-02-24T13:58:04.762Z,2.52
2019-02-24T14:01:01.303Z,2.67
2019-02-24T14:03:56.824Z,2.60
2019-02-24T14:06:53.411Z,2.40
2019-02-24T14:09:49.703Z,2.00
2019-02-24T14:12:45.754Z,2.47
2019-02-24T14:15:42.589Z,2.90
2019-02-24T14:18:44.054Z,3.90
2019-02-24T14:21:40.757Z,2.20
2019-02-24T14:24:36.231Z,2.17
2019-02-24T14:27:32.738Z,2.30
2019-02-24T14:30:29.473Z,1.93
2019-02-24T14:33:35.992Z,2.17
2019-02-24T14:36:34.045Z,2.30
2019-02-24T14:39:31.789Z,2.30
2019-02-24T14:42:27.843Z,2.00
2019-02-24T14:45:24.930Z,2.00
2019-02-24T14:48:22.115Z,3.20
2019-02-24T14:51:18.041Z,2.97
2019-02-24T14:54:14.884Z,2.83
2019-02-24T14:57:11.627Z,2.40
2019-02-24T15:00:08.200Z,3.12
2019-02-24T15:03:04.741Z,2.47
2019-02-24T15:06:01.306Z,2.30
2019-02-24T15:09:02.163Z,2.63
2019-02-24T15:11:58.186Z,4.10
2019-02-24T15:14:55.089Z,9.20
2019-02-24T15:17:50.669Z,4.37
2019-02-24T15:20:49.396Z,3.70
2019-02-24T15:23:44.674Z,13.60
2019-02-24T15:26:41.546Z,2.83
2019-02-24T15:29:38.440Z,2.60
2019-02-24T15:32:35.006Z,1.87
2019-02-24T15:35:31.989Z,3.07
2019-02-24T15:38:27.652Z,2.90
2019-02-24T15:41:29.812Z,2.80
2019-02-24T15:44:20.511Z,2.47
2019-02-24T15:47:17.080Z,2.20
2019-02-24T15:50:13.792Z,2.60
2019-02-24T15:53:12.488Z,2.60
2019-02-24T15:56:08.077Z,2.60
2019-02-24T15:59:04.620Z,2.63
2019-02-24T16:02:02.282Z,3.17
2019-02-24T16:04:57.804Z,3.70
2019-02-24T16:07:54.320Z,2.70
2019-02-24T16:10:50.314Z,2.75
2019-02-24T16:16:41.013Z,3.13
2019-02-24T16:19:38.552Z,3.90
2019-02-24T16:22:34.110Z,2.80
2019-02-24T16:25:30.235Z,2.80
2019-02-24T16:28:25.787Z,2.80
2019-02-24T16:31:22.386Z,2.70
2019-02-24T16:34:17.020Z,2.80
2019-02-24T16:37:13.627Z,2.90
2019-02-24T16:40:10.452Z,2.50
2019-02-24T16:43:06.051Z,2.60
2019-02-24T16:46:02.829Z,2.90
2019-02-24T16:48:58.016Z,2.80
2019-02-24T16:51:54.795Z,3.87
2019-02-24T16:54:52.797Z,4.17
2019-02-24T16:57:48.258Z,4.00
2019-02-24T17:00:44.776Z,5.33
2019-02-24T17:03:41.214Z,5.53
2019-02-24T17:06:40.943Z,5.97
2019-02-24T17:09:37.733Z,5.37
2019-02-24T17:12:35.434Z,9.53
2019-02-24T17:15:30.985Z,9.40
2019-02-24T17:18:27.514Z,7.62
2019-02-24T17:21:26.987Z,7.77
2019-02-24T17:24:22.025Z,11.70
2019-02-24T17:27:18.068Z,8.77
2019-02-24T17:30:13.479Z,7.20
2019-02-24T17:33:10.258Z,5.80
2019-02-24T17:36:07.624Z,6.85
2019-02-24T17:39:02.442Z,5.50
2019-02-24T17:41:58.842Z,5.67
2019-02-24T17:44:55.382Z,5.50
2019-02-24T17:47:50.597Z,9.70
2019-02-24T17:50:47.159Z,7.60
2019-02-24T17:53:44.931Z,9.67
2019-02-24T17:56:40.710Z,9.93
2019-02-24T17:59:40.434Z,11.70
2019-02-24T18:02:34.042Z,9.03
2019-02-24T18:05:30.661Z,9.10
2019-02-24T18:08:28.218Z,11.43
2019-02-24T18:11:21.828Z,9.90
2019-02-24T18:14:17.615Z,9.10
2019-02-24T18:17:14.147Z,8.80
2019-02-24T18:20:11.985Z,9.60
2019-02-24T18:23:08.459Z,8.90
2019-02-24T18:26:05.168Z,7.47
2019-02-24T18:29:00.627Z,8.53
2019-02-24T18:31:57.246Z,8.60
2019-02-24T18:34:53.162Z,9.47
2019-02-24T18:37:49.238Z,9.33
2019-02-24T18:40:45.961Z,11.77
2019-02-24T18:43:42.462Z,11.57
2019-02-24T18:46:39.248Z,13.23
2019-02-24T18:49:34.939Z,9.43
2019-02-24T18:52:33.907Z,11.00
2019-02-24T18:55:30.469Z,9.73
2019-02-24T18:58:28.764Z,10.20
2019-02-24T19:01:23.470Z,10.60
2019-02-24T19:04:20.610Z,11.60
2019-02-24T19:07:17.527Z,10.10
2019-02-24T19:10:13.552Z,9.80
2019-02-24T19:13:12.077Z,10.17
2019-02-24T19:16:07.845Z,10.30
2019-02-24T19:19:05.616Z,10.57
2019-02-24T19:22:01.305Z,9.50
2019-02-24T19:24:58.190Z,8.37
2019-02-24T19:27:59.451Z,7.47
2019-02-24T19:30:55.130Z,7.40
2019-02-24T19:33:53.799Z,13.40
2019-02-24T19:36:48.787Z,30.90
2019-02-24T19:39:46.732Z,37.20
2019-02-24T19:42:42.671Z,33.40
2019-02-24T19:45:40.432Z,32.13
2019-02-24T19:48:42.053Z,28.93
2019-02-24T19:51:32.968Z,21.07
2019-02-24T19:54:30.824Z,17.30
2019-02-24T19:57:27.147Z,16.33
2019-02-24T20:00:23.257Z,14.50
2019-02-24T20:03:20.769Z,12.53
2019-02-24T20:06:17.444Z,11.70
2019-02-24T20:09:14.206Z,12.23
2019-02-24T20:12:10.252Z,9.50
2019-02-24T20:15:09.535Z,10.50
2019-02-24T20:18:05.438Z,10.63
2019-02-24T20:21:08.022Z,10.30
2019-02-24T20:24:04.351Z,10.60
2019-02-24T20:27:01.041Z,10.10
2019-02-24T20:29:56.916Z,10.50
2019-02-24T20:32:53.283Z,9.80
2019-02-24T20:35:50.177Z,10.13
2019-02-24T20:38:45.905Z,9.80
2019-02-24T20:41:42.736Z,8.40
2019-02-24T20:44:39.527Z,9.78
2019-02-24T20:47:36.476Z,9.35
2019-02-24T20:50:31.607Z,9.97
2019-02-24T20:53:28.417Z,9.33
2019-02-24T20:56:23.680Z,7.77
2019-02-24T20:59:20.353Z,8.60
2019-02-24T21:02:17.492Z,8.60
2019-02-24T21:05:15.190Z,10.77
2019-02-24T21:08:11.734Z,11.20
2019-02-24T21:11:08.412Z,10.70
2019-02-24T21:14:06.092Z,9.90
2019-02-24T21:17:01.789Z,8.30
2019-02-24T21:19:59.442Z,8.90
2019-02-24T21:22:55.390Z,9.63
2019-02-24T21:25:52.751Z,8.40
2019-02-24T21:28:48.988Z,9.60
2019-02-24T21:31:45.920Z,10.00
2019-02-24T21:34:42.385Z,9.47
2019-02-24T21:37:40.084Z,9.58
2019-02-24T21:40:35.513Z,9.87
2019-02-24T21:43:32.067Z,12.47
2019-02-24T21:46:27.587Z,12.47
2019-02-24T21:49:24.051Z,22.00
2019-02-24T21:52:19.536Z,18.40
2019-02-24T21:55:17.057Z,14.90
2019-02-24T21:58:12.824Z,16.43
2019-02-24T22:01:09.340Z,11.57
2019-02-24T22:04:04.767Z,11.63
2019-02-24T22:07:01.543Z,11.70
2019-02-24T22:09:57.133Z,11.50
2019-02-24T22:12:54.073Z,10.95
2019-02-24T22:15:50.642Z,10.40
2019-02-24T22:18:47.263Z,10.47
2019-02-24T22:21:43.802Z,10.70
2019-02-24T22:24:40.483Z,12.73
2019-02-24T22:27:36.094Z,14.20
2019-02-24T22:30:33.480Z,16.13
2019-02-24T22:33:29.275Z,13.43
2019-02-24T22:36:25.352Z,13.80
2019-02-24T22:39:20.492Z,13.13
2019-02-24T22:42:17.028Z,14.60
2019-02-24T22:45:12.554Z,13.95
2019-02-24T22:48:08.660Z,11.67
2019-02-24T22:51:05.240Z,11.18
2019-02-24T22:54:00.755Z,10.20
2019-02-24T22:56:58.423Z,10.10
2019-02-24T22:59:53.625Z,9.70
2019-02-24T23:02:49.935Z,10.50
2019-02-24T23:05:47.449Z,10.00
2019-02-24T23:08:44.047Z,10.00
2019-02-24T23:11:39.517Z,10.63
2019-02-24T23:14:35.971Z,9.70
2019-02-24T23:17:32.442Z,9.57
2019-02-24T23:20:29.186Z,9.43
2019-02-24T23:23:24.865Z,9.77
2019-02-24T23:26:22.488Z,9.80
2019-02-24T23:29:18.085Z,9.78
2019-02-24T23:32:14.885Z,8.20
2019-02-24T23:35:10.040Z,9.30
2019-02-24T23:38:06.600Z,9.77
2019-02-24T23:41:02.186Z,8.30
2019-02-24T23:43:59.009Z,8.90
2019-02-24T23:46:54.968Z,9.17
2019-02-24T23:49:51.780Z,8.23
2019-02-24T23:52:47.538Z,8.30
2019-02-24T23:55:44.153Z,8.35
2019-02-24T23:58:39.614Z,9.27
